Redmond, Oregon
Current Conditions -  °F | °C
As of 7:56 AM on Wednesday 22 Oct 2014 (Local Time) from KRDM Reporting Station
Overcast Overcast  
Wind Chill: 11°   Ceiling: 8500
Heat Index: 11°   Visibility: 10mi
Dew Point:   Wind: 13mph
Humidity: 57%   Direction: 170°S
Pressure: 29.92"   Gusts: NA
Location:  44.27°N, 121.17°W
Report Text: KRDM 221456Z 17011KT 10SM SCT065 BKN085 OVC100 11/03 A2992 RMK AO2 SLP127 T01110028 53000
Loading
Personal Weather Stations






























Interactive Weather Map
Tropical Storm Tracking
New forecast layout! Learn more

10-Day Weather Forecast

Advertisements
Track Severe Weather on mobile